sensor_id;sensor_type;location;lat;lon;timestamp;P1;durP1;ratioP1;P2;durP2;ratioP2
10463;SDS011;5279;42.048;24.638;2022-07-25T00:02:26;11.57;;;8.43;;
10463;SDS011;5279;42.048;24.638;2022-07-25T00:04:52;9.27;;;7.77;;
10463;SDS011;5279;42.048;24.638;2022-07-25T00:07:19;8.50;;;7.60;;
10463;SDS011;5279;42.048;24.638;2022-07-25T00:09:46;10.77;;;8.40;;
10463;SDS011;5279;42.048;24.638;2022-07-25T00:12:15;15.30;;;8.97;;
10463;SDS011;5279;42.048;24.638;2022-07-25T00:14:42;14.00;;;9.53;;
10463;SDS011;5279;42.048;24.638;2022-07-25T00:17:08;10.63;;;9.53;;
10463;SDS011;5279;42.048;24.638;2022-07-25T00:19:36;11.13;;;9.63;;
10463;SDS011;5279;42.048;24.638;2022-07-25T00:22:03;11.10;;;10.00;;
10463;SDS011;5279;42.048;24.638;2022-07-25T00:24:30;11.60;;;10.40;;
10463;SDS011;5279;42.048;24.638;2022-07-25T00:26:57;11.57;;;10.43;;
10463;SDS011;5279;42.048;24.638;2022-07-25T00:29:25;13.70;;;9.93;;
10463;SDS011;5279;42.048;24.638;2022-07-25T00:31:52;10.73;;;9.63;;
10463;SDS011;5279;42.048;24.638;2022-07-25T00:37:11;10.17;;;8.30;;
10463;SDS011;5279;42.048;24.638;2022-07-25T00:39:39;8.27;;;7.00;;
10463;SDS011;5279;42.048;24.638;2022-07-25T00:42:06;7.43;;;6.83;;
10463;SDS011;5279;42.048;24.638;2022-07-25T00:44:36;8.10;;;7.30;;
10463;SDS011;5279;42.048;24.638;2022-07-25T00:47:03;7.93;;;7.33;;
10463;SDS011;5279;42.048;24.638;2022-07-25T00:49:30;7.73;;;7.03;;
10463;SDS011;5279;42.048;24.638;2022-07-25T00:51:57;8.53;;;7.83;;
10463;SDS011;5279;42.048;24.638;2022-07-25T00:54:25;8.27;;;7.67;;
10463;SDS011;5279;42.048;24.638;2022-07-25T00:56:52;8.50;;;7.73;;
10463;SDS011;5279;42.048;24.638;2022-07-25T00:59:19;8.40;;;7.60;;
10463;SDS011;5279;42.048;24.638;2022-07-25T01:01:49;8.40;;;7.67;;
10463;SDS011;5279;42.048;24.638;2022-07-25T01:04:16;9.00;;;8.30;;
10463;SDS011;5279;42.048;24.638;2022-07-25T01:06:43;9.43;;;8.50;;
10463;SDS011;5279;42.048;24.638;2022-07-25T01:09:10;9.20;;;8.50;;
10463;SDS011;5279;42.048;24.638;2022-07-25T01:11:37;9.77;;;8.87;;
10463;SDS011;5279;42.048;24.638;2022-07-25T01:14:04;9.83;;;9.03;;
10463;SDS011;5279;42.048;24.638;2022-07-25T01:16:32;9.93;;;9.13;;
10463;SDS011;5279;42.048;24.638;2022-07-25T01:19:00;10.67;;;9.67;;
10463;SDS011;5279;42.048;24.638;2022-07-25T01:21:29;10.67;;;9.63;;
10463;SDS011;5279;42.048;24.638;2022-07-25T01:23:56;9.20;;;8.40;;
10463;SDS011;5279;42.048;24.638;2022-07-25T01:26:23;10.93;;;9.60;;
10463;SDS011;5279;42.048;24.638;2022-07-25T01:28:50;10.53;;;9.60;;
10463;SDS011;5279;42.048;24.638;2022-07-25T01:31:17;10.00;;;9.00;;
10463;SDS011;5279;42.048;24.638;2022-07-25T01:33:44;10.43;;;9.43;;
10463;SDS011;5279;42.048;24.638;2022-07-25T01:36:11;10.33;;;9.43;;
10463;SDS011;5279;42.048;24.638;2022-07-25T01:38:40;10.67;;;9.77;;
10463;SDS011;5279;42.048;24.638;2022-07-25T01:41:07;9.93;;;9.13;;
10463;SDS011;5279;42.048;24.638;2022-07-25T01:43:35;9.37;;;8.60;;
10463;SDS011;5279;42.048;24.638;2022-07-25T01:46:02;9.73;;;8.90;;
10463;SDS011;5279;42.048;24.638;2022-07-25T01:48:29;9.50;;;8.70;;
10463;SDS011;5279;42.048;24.638;2022-07-25T01:50:57;9.73;;;8.73;;
10463;SDS011;5279;42.048;24.638;2022-07-25T01:53:24;9.43;;;8.63;;
10463;SDS011;5279;42.048;24.638;2022-07-25T01:55:52;9.67;;;8.90;;
10463;SDS011;5279;42.048;24.638;2022-07-25T01:58:19;10.23;;;9.33;;
10463;SDS011;5279;42.048;24.638;2022-07-25T02:00:46;8.87;;;8.07;;
10463;SDS011;5279;42.048;24.638;2022-07-25T02:03:14;9.40;;;8.70;;
10463;SDS011;5279;42.048;24.638;2022-07-25T02:05:55;9.53;;;8.53;;
10463;SDS011;5279;42.048;24.638;2022-07-25T02:08:24;9.07;;;8.37;;
10463;SDS011;5279;42.048;24.638;2022-07-25T02:10:52;9.70;;;8.77;;
10463;SDS011;5279;42.048;24.638;2022-07-25T02:13:20;8.90;;;8.13;;
10463;SDS011;5279;42.048;24.638;2022-07-25T02:15:47;9.30;;;8.50;;
10463;SDS011;5279;42.048;24.638;2022-07-25T02:18:14;7.63;;;7.00;;
10463;SDS011;5279;42.048;24.638;2022-07-25T02:20:41;8.07;;;7.43;;
10463;SDS011;5279;42.048;24.638;2022-07-25T02:23:08;8.07;;;7.40;;
10463;SDS011;5279;42.048;24.638;2022-07-25T02:25:35;8.23;;;7.50;;
10463;SDS011;5279;42.048;24.638;2022-07-25T02:28:04;8.00;;;7.40;;
10463;SDS011;5279;42.048;24.638;2022-07-25T02:30:31;7.87;;;7.23;;
10463;SDS011;5279;42.048;24.638;2022-07-25T02:32:58;8.13;;;7.53;;
10463;SDS011;5279;42.048;24.638;2022-07-25T02:35:25;8.00;;;7.43;;
10463;SDS011;5279;42.048;24.638;2022-07-25T02:37:52;8.53;;;7.53;;
10463;SDS011;5279;42.048;24.638;2022-07-25T02:40:19;8.93;;;8.13;;
10463;SDS011;5279;42.048;24.638;2022-07-25T02:42:46;7.97;;;7.27;;
10463;SDS011;5279;42.048;24.638;2022-07-25T02:45:15;8.50;;;7.90;;
10463;SDS011;5279;42.048;24.638;2022-07-25T02:47:42;8.63;;;7.93;;
10463;SDS011;5279;42.048;24.638;2022-07-25T02:50:09;8.40;;;7.70;;
10463;SDS011;5279;42.048;24.638;2022-07-25T02:52:36;8.77;;;8.07;;
10463;SDS011;5279;42.048;24.638;2022-07-25T02:55:04;9.27;;;8.47;;
10463;SDS011;5279;42.048;24.638;2022-07-25T02:57:32;9.30;;;7.53;;
10463;SDS011;5279;42.048;24.638;2022-07-25T02:59:59;8.70;;;8.00;;
10463;SDS011;5279;42.048;24.638;2022-07-25T03:02:27;9.23;;;8.53;;
10463;SDS011;5279;42.048;24.638;2022-07-25T03:04:55;9.20;;;8.50;;
10463;SDS011;5279;42.048;24.638;2022-07-25T03:07:22;8.57;;;7.83;;
10463;SDS011;5279;42.048;24.638;2022-07-25T03:09:49;8.43;;;7.83;;
10463;SDS011;5279;42.048;24.638;2022-07-25T03:12:16;8.33;;;7.73;;
10463;SDS011;5279;42.048;24.638;2022-07-25T03:14:43;9.07;;;8.37;;
10463;SDS011;5279;42.048;24.638;2022-07-25T03:17:10;8.93;;;8.23;;
10463;SDS011;5279;42.048;24.638;2022-07-25T03:19:38;8.87;;;8.17;;
10463;SDS011;5279;42.048;24.638;2022-07-25T03:22:05;9.13;;;8.30;;
10463;SDS011;5279;42.048;24.638;2022-07-25T03:24:32;8.57;;;7.97;;
10463;SDS011;5279;42.048;24.638;2022-07-25T03:26:59;9.57;;;8.77;;
10463;SDS011;5279;42.048;24.638;2022-07-25T03:29:26;9.07;;;8.27;;
10463;SDS011;5279;42.048;24.638;2022-07-25T03:31:53;9.10;;;8.30;;
10463;SDS011;5279;42.048;24.638;2022-07-25T03:34:20;8.77;;;8.10;;
10463;SDS011;5279;42.048;24.638;2022-07-25T03:40:11;9.30;;;8.30;;
10463;SDS011;5279;42.048;24.638;2022-07-25T03:42:39;8.90;;;8.20;;
10463;SDS011;5279;42.048;24.638;2022-07-25T03:45:07;9.00;;;8.30;;
10463;SDS011;5279;42.048;24.638;2022-07-25T03:47:35;9.67;;;8.80;;
10463;SDS011;5279;42.048;24.638;2022-07-25T03:50:02;10.23;;;9.37;;
10463;SDS011;5279;42.048;24.638;2022-07-25T03:52:29;9.67;;;8.87;;
10463;SDS011;5279;42.048;24.638;2022-07-25T03:54:57;9.90;;;9.00;;
10463;SDS011;5279;42.048;24.638;2022-07-25T03:57:25;10.40;;;9.60;;
10463;SDS011;5279;42.048;24.638;2022-07-25T03:59:52;9.50;;;8.80;;
10463;SDS011;5279;42.048;24.638;2022-07-25T04:02:19;9.30;;;8.47;;
10463;SDS011;5279;42.048;24.638;2022-07-25T04:04:46;9.83;;;8.93;;
10463;SDS011;5279;42.048;24.638;2022-07-25T04:07:13;9.83;;;8.93;;
10463;SDS011;5279;42.048;24.638;2022-07-25T04:09:40;10.17;;;9.27;;
10463;SDS011;5279;42.048;24.638;2022-07-25T04:12:07;9.60;;;8.80;;
10463;SDS011;5279;42.048;24.638;2022-07-25T04:14:36;9.77;;;8.97;;
10463;SDS011;5279;42.048;24.638;2022-07-25T04:17:03;9.83;;;9.10;;
10463;SDS011;5279;42.048;24.638;2022-07-25T04:19:31;9.70;;;8.90;;
10463;SDS011;5279;42.048;24.638;2022-07-25T04:21:58;8.37;;;7.77;;
10463;SDS011;5279;42.048;24.638;2022-07-25T04:24:25;8.70;;;8.00;;
10463;SDS011;5279;42.048;24.638;2022-07-25T04:26:52;9.83;;;8.83;;
10463;SDS011;5279;42.048;24.638;2022-07-25T04:29:19;8.87;;;8.07;;
10463;SDS011;5279;42.048;24.638;2022-07-25T04:31:47;9.53;;;8.83;;
10463;SDS011;5279;42.048;24.638;2022-07-25T04:34:14;9.50;;;8.60;;
10463;SDS011;5279;42.048;24.638;2022-07-25T04:36:41;9.03;;;8.30;;
10463;SDS011;5279;42.048;24.638;2022-07-25T04:39:08;9.30;;;8.57;;
10463;SDS011;5279;42.048;24.638;2022-07-25T04:41:35;9.27;;;8.37;;
10463;SDS011;5279;42.048;24.638;2022-07-25T04:44:02;9.00;;;8.30;;
10463;SDS011;5279;42.048;24.638;2022-07-25T04:46:31;8.43;;;7.53;;
10463;SDS011;5279;42.048;24.638;2022-07-25T04:49:01;9.13;;;8.43;;
10463;SDS011;5279;42.048;24.638;2022-07-25T04:51:28;9.00;;;8.30;;
10463;SDS011;5279;42.048;24.638;2022-07-25T04:53:55;8.53;;;7.83;;
10463;SDS011;5279;42.048;24.638;2022-07-25T04:56:22;8.47;;;7.67;;
10463;SDS011;5279;42.048;24.638;2022-07-25T04:58:49;8.77;;;8.03;;
10463;SDS011;5279;42.048;24.638;2022-07-25T05:01:16;8.57;;;7.67;;
10463;SDS011;5279;42.048;24.638;2022-07-25T05:03:43;7.70;;;7.13;;
10463;SDS011;5279;42.048;24.638;2022-07-25T05:06:11;7.73;;;7.07;;
10463;SDS011;5279;42.048;24.638;2022-07-25T05:08:38;8.17;;;7.47;;
10463;SDS011;5279;42.048;24.638;2022-07-25T05:11:05;8.13;;;7.30;;
10463;SDS011;5279;42.048;24.638;2022-07-25T05:13:32;8.23;;;7.50;;
10463;SDS011;5279;42.048;24.638;2022-07-25T05:15:59;8.00;;;7.30;;
10463;SDS011;5279;42.048;24.638;2022-07-25T05:18:27;9.40;;;7.50;;
10463;SDS011;5279;42.048;24.638;2022-07-25T05:20:53;8.57;;;7.80;;
10463;SDS011;5279;42.048;24.638;2022-07-25T05:23:22;8.03;;;7.40;;
10463;SDS011;5279;42.048;24.638;2022-07-25T05:25:48;8.43;;;7.60;;
10463;SDS011;5279;42.048;24.638;2022-07-25T05:28:15;8.33;;;7.53;;
10463;SDS011;5279;42.048;24.638;2022-07-25T05:30:42;8.47;;;7.77;;
10463;SDS011;5279;42.048;24.638;2022-07-25T05:33:09;7.97;;;7.10;;
10463;SDS011;5279;42.048;24.638;2022-07-25T05:35:36;8.43;;;7.57;;
10463;SDS011;5279;42.048;24.638;2022-07-25T05:38:03;7.53;;;6.70;;
10463;SDS011;5279;42.048;24.638;2022-07-25T05:40:32;8.60;;;7.90;;
10463;SDS011;5279;42.048;24.638;2022-07-25T05:42:58;7.60;;;6.97;;
10463;SDS011;5279;42.048;24.638;2022-07-25T05:45:25;8.30;;;7.60;;
10463;SDS011;5279;42.048;24.638;2022-07-25T05:47:52;9.67;;;7.77;;
10463;SDS011;5279;42.048;24.638;2022-07-25T05:50:19;6.80;;;6.30;;
10463;SDS011;5279;42.048;24.638;2022-07-25T05:52:46;7.30;;;6.60;;
10463;SDS011;5279;42.048;24.638;2022-07-25T05:55:13;8.13;;;7.00;;
10463;SDS011;5279;42.048;24.638;2022-07-25T05:57:41;7.37;;;6.77;;
10463;SDS011;5279;42.048;24.638;2022-07-25T06:00:08;8.13;;;7.40;;
10463;SDS011;5279;42.048;24.638;2022-07-25T06:02:36;6.97;;;6.37;;
10463;SDS011;5279;42.048;24.638;2022-07-25T06:05:03;7.00;;;6.40;;
10463;SDS011;5279;42.048;24.638;2022-07-25T06:07:30;7.30;;;6.70;;
10463;SDS011;5279;42.048;24.638;2022-07-25T06:09:57;7.30;;;6.70;;
10463;SDS011;5279;42.048;24.638;2022-07-25T06:12:24;7.20;;;6.60;;
10463;SDS011;5279;42.048;24.638;2022-07-25T06:14:52;7.73;;;7.13;;
10463;SDS011;5279;42.048;24.638;2022-07-25T06:17:19;7.40;;;6.70;;
10463;SDS011;5279;42.048;24.638;2022-07-25T06:19:46;7.23;;;6.63;;
10463;SDS011;5279;42.048;24.638;2022-07-25T06:22:12;7.20;;;6.60;;
10463;SDS011;5279;42.048;24.638;2022-07-25T06:24:39;7.47;;;6.67;;
10463;SDS011;5279;42.048;24.638;2022-07-25T06:27:06;7.50;;;6.80;;
10463;SDS011;5279;42.048;24.638;2022-07-25T06:29:33;8.50;;;7.00;;
10463;SDS011;5279;42.048;24.638;2022-07-25T06:32:02;7.33;;;6.63;;
10463;SDS011;5279;42.048;24.638;2022-07-25T06:34:29;7.07;;;6.53;;
10463;SDS011;5279;42.048;24.638;2022-07-25T06:36:56;7.10;;;6.50;;
10463;SDS011;5279;42.048;24.638;2022-07-25T06:39:22;6.87;;;6.27;;
10463;SDS011;5279;42.048;24.638;2022-07-25T06:41:49;7.00;;;6.40;;
10463;SDS011;5279;42.048;24.638;2022-07-25T06:44:16;6.87;;;6.13;;
10463;SDS011;5279;42.048;24.638;2022-07-25T06:46:43;7.40;;;6.80;;
10463;SDS011;5279;42.048;24.638;2022-07-25T06:49:11;7.70;;;6.90;;
10463;SDS011;5279;42.048;24.638;2022-07-25T06:51:38;7.40;;;6.70;;
10463;SDS011;5279;42.048;24.638;2022-07-25T06:54:05;7.07;;;6.43;;
10463;SDS011;5279;42.048;24.638;2022-07-25T06:56:32;7.43;;;6.80;;
10463;SDS011;5279;42.048;24.638;2022-07-25T06:58:59;7.47;;;6.80;;
10463;SDS011;5279;42.048;24.638;2022-07-25T07:01:25;7.43;;;6.73;;
10463;SDS011;5279;42.048;24.638;2022-07-25T07:03:53;6.87;;;6.27;;
10463;SDS011;5279;42.048;24.638;2022-07-25T07:06:21;7.33;;;6.63;;
10463;SDS011;5279;42.048;24.638;2022-07-25T07:08:48;7.50;;;6.43;;
10463;SDS011;5279;42.048;24.638;2022-07-25T07:11:15;7.77;;;7.03;;
10463;SDS011;5279;42.048;24.638;2022-07-25T07:13:41;7.30;;;6.70;;
10463;SDS011;5279;42.048;24.638;2022-07-25T07:16:09;6.80;;;6.20;;
10463;SDS011;5279;42.048;24.638;2022-07-25T07:18:35;7.20;;;6.60;;
10463;SDS011;5279;42.048;24.638;2022-07-25T07:21:02;6.47;;;5.97;;
10463;SDS011;5279;42.048;24.638;2022-07-25T07:23:31;7.10;;;5.80;;
10463;SDS011;5279;42.048;24.638;2022-07-25T07:25:58;7.03;;;6.43;;
10463;SDS011;5279;42.048;24.638;2022-07-25T07:28:25;6.70;;;6.20;;
10463;SDS011;5279;42.048;24.638;2022-07-25T07:30:52;6.55;;;5.90;;
10463;SDS011;5279;42.048;24.638;2022-07-25T07:33:18;7.20;;;6.60;;
10463;SDS011;5279;42.048;24.638;2022-07-25T07:35:45;7.70;;;6.13;;
10463;SDS011;5279;42.048;24.638;2022-07-25T07:38:12;6.33;;;5.73;;
10463;SDS011;5279;42.048;24.638;2022-07-25T07:40:40;7.10;;;6.47;;
10463;SDS011;5279;42.048;24.638;2022-07-25T07:43:07;6.47;;;5.87;;
10463;SDS011;5279;42.048;24.638;2022-07-25T07:45:35;6.78;;;6.28;;
10463;SDS011;5279;42.048;24.638;2022-07-25T07:48:01;7.13;;;6.43;;
10463;SDS011;5279;42.048;24.638;2022-07-25T07:50:28;6.55;;;5.90;;
10463;SDS011;5279;42.048;24.638;2022-07-25T07:52:55;6.63;;;6.07;;
10463;SDS011;5279;42.048;24.638;2022-07-25T07:55:23;6.75;;;6.10;;
10463;SDS011;5279;42.048;24.638;2022-07-25T07:58:09;6.55;;;6.05;;
10463;SDS011;5279;42.048;24.638;2022-07-25T08:00:39;8.65;;;6.40;;
10463;SDS011;5279;42.048;24.638;2022-07-25T08:03:07;6.32;;;5.78;;
10463;SDS011;5279;42.048;24.638;2022-07-25T08:05:35;6.80;;;6.07;;
10463;SDS011;5279;42.048;24.638;2022-07-25T08:08:04;6.65;;;5.97;;
10463;SDS011;5279;42.048;24.638;2022-07-25T08:10:32;6.88;;;6.28;;
10463;SDS011;5279;42.048;24.638;2022-07-25T08:13:01;6.22;;;5.72;;
10463;SDS011;5279;42.048;24.638;2022-07-25T08:15:31;7.28;;;6.50;;
10463;SDS011;5279;42.048;24.638;2022-07-25T08:17:57;6.25;;;5.75;;
10463;SDS011;5279;42.048;24.638;2022-07-25T08:20:24;6.55;;;5.47;;
10463;SDS011;5279;42.048;24.638;2022-07-25T08:22:51;7.10;;;5.82;;
10463;SDS011;5279;42.048;24.638;2022-07-25T08:25:19;6.85;;;5.78;;
10463;SDS011;5279;42.048;24.638;2022-07-25T08:27:46;8.45;;;5.97;;
10463;SDS011;5279;42.048;24.638;2022-07-25T08:30:14;6.25;;;5.65;;
10463;SDS011;5279;42.048;24.638;2022-07-25T08:32:47;6.72;;;6.13;;
10463;SDS011;5279;42.048;24.638;2022-07-25T08:35:15;6.63;;;6.03;;
10463;SDS011;5279;42.048;24.638;2022-07-25T08:37:42;6.10;;;5.40;;
10463;SDS011;5279;42.048;24.638;2022-07-25T08:40:10;7.80;;;5.80;;
10463;SDS011;5279;42.048;24.638;2022-07-25T08:42:37;5.75;;;5.15;;
10463;SDS011;5279;42.048;24.638;2022-07-25T08:45:05;6.93;;;5.90;;
10463;SDS011;5279;42.048;24.638;2022-07-25T08:47:34;6.40;;;5.80;;
10463;SDS011;5279;42.048;24.638;2022-07-25T08:50:03;6.88;;;5.70;;
10463;SDS011;5279;42.048;24.638;2022-07-25T08:52:32;5.85;;;5.32;;
10463;SDS011;5279;42.048;24.638;2022-07-25T08:55:01;6.45;;;5.80;;
10463;SDS011;5279;42.048;24.638;2022-07-25T08:57:29;6.25;;;5.75;;
10463;SDS011;5279;42.048;24.638;2022-07-25T08:59:56;5.63;;;5.13;;
10463;SDS011;5279;42.048;24.638;2022-07-25T09:02:24;5.88;;;5.47;;
10463;SDS011;5279;42.048;24.638;2022-07-25T09:04:51;5.45;;;4.97;;
10463;SDS011;5279;42.048;24.638;2022-07-25T09:07:29;6.20;;;5.70;;
10463;SDS011;5279;42.048;24.638;2022-07-25T09:10:10;6.97;;;6.00;;
10463;SDS011;5279;42.048;24.638;2022-07-25T09:12:38;8.85;;;5.90;;
10463;SDS011;5279;42.048;24.638;2022-07-25T09:15:05;6.00;;;5.40;;
10463;SDS011;5279;42.048;24.638;2022-07-25T09:17:33;6.20;;;5.63;;
10463;SDS011;5279;42.048;24.638;2022-07-25T09:20:00;7.28;;;6.05;;
10463;SDS011;5279;42.048;24.638;2022-07-25T09:22:30;6.13;;;5.63;;
10463;SDS011;5279;42.048;24.638;2022-07-25T09:24:57;5.70;;;5.20;;
10463;SDS011;5279;42.048;24.638;2022-07-25T09:27:24;7.00;;;5.22;;
10463;SDS011;5279;42.048;24.638;2022-07-25T09:29:51;6.28;;;5.15;;
10463;SDS011;5279;42.048;24.638;2022-07-25T09:32:18;5.57;;;5.18;;
10463;SDS011;5279;42.048;24.638;2022-07-25T09:34:47;15.48;;;7.45;;
10463;SDS011;5279;42.048;24.638;2022-07-25T09:37:16;5.78;;;5.38;;
10463;SDS011;5279;42.048;24.638;2022-07-25T09:39:47;4.80;;;4.50;;
10463;SDS011;5279;42.048;24.638;2022-07-25T09:42:19;5.10;;;4.68;;
10463;SDS011;5279;42.048;24.638;2022-07-25T09:44:56;4.80;;;4.50;;
10463;SDS011;5279;42.048;24.638;2022-07-25T09:47:24;5.07;;;4.65;;
10463;SDS011;5279;42.048;24.638;2022-07-25T09:49:51;4.95;;;4.53;;
10463;SDS011;5279;42.048;24.638;2022-07-25T09:52:18;6.93;;;4.65;;
10463;SDS011;5279;42.048;24.638;2022-07-25T09:54:47;4.97;;;4.57;;
10463;SDS011;5279;42.048;24.638;2022-07-25T09:57:14;5.72;;;4.50;;
10463;SDS011;5279;42.048;24.638;2022-07-25T09:59:41;4.55;;;4.25;;
10463;SDS011;5279;42.048;24.638;2022-07-25T10:02:10;5.13;;;4.75;;
10463;SDS011;5279;42.048;24.638;2022-07-25T10:04:42;5.18;;;4.78;;
10463;SDS011;5279;42.048;24.638;2022-07-25T10:07:12;5.43;;;4.93;;
10463;SDS011;5279;42.048;24.638;2022-07-25T10:09:42;6.55;;;4.90;;
10463;SDS011;5279;42.048;24.638;2022-07-25T10:12:13;5.40;;;4.90;;
10463;SDS011;5279;42.048;24.638;2022-07-25T10:14:51;5.13;;;4.72;;
10463;SDS011;5279;42.048;24.638;2022-07-25T10:17:29;5.80;;;4.70;;
10463;SDS011;5279;42.048;24.638;2022-07-25T10:19:56;6.43;;;4.85;;
10463;SDS011;5279;42.048;24.638;2022-07-25T10:22:34;5.32;;;4.93;;
10463;SDS011;5279;42.048;24.638;2022-07-25T10:25:06;5.40;;;4.72;;
10463;SDS011;5279;42.048;24.638;2022-07-25T10:27:40;5.00;;;4.60;;
10463;SDS011;5279;42.048;24.638;2022-07-25T10:30:09;5.30;;;4.80;;
10463;SDS011;5279;42.048;24.638;2022-07-25T10:32:48;6.30;;;5.10;;
10463;SDS011;5279;42.048;24.638;2022-07-25T10:35:15;5.75;;;5.10;;
10463;SDS011;5279;42.048;24.638;2022-07-25T10:37:43;5.13;;;4.72;;
10463;SDS011;5279;42.048;24.638;2022-07-25T10:40:12;5.47;;;4.97;;
10463;SDS011;5279;42.048;24.638;2022-07-25T10:42:56;5.15;;;4.85;;
10463;SDS011;5279;42.048;24.638;2022-07-25T10:45:32;5.40;;;4.90;;
10463;SDS011;5279;42.048;24.638;2022-07-25T10:48:07;6.50;;;5.47;;
10463;SDS011;5279;42.048;24.638;2022-07-25T10:50:45;5.75;;;4.82;;
10463;SDS011;5279;42.048;24.638;2022-07-25T10:53:12;5.25;;;4.80;;
10463;SDS011;5279;42.048;24.638;2022-07-25T10:55:39;4.97;;;4.57;;
10463;SDS011;5279;42.048;24.638;2022-07-25T10:58:08;5.00;;;4.55;;
10463;SDS011;5279;42.048;24.638;2022-07-25T11:00:41;5.80;;;5.30;;
10463;SDS011;5279;42.048;24.638;2022-07-25T11:03:09;5.38;;;4.97;;
10463;SDS011;5279;42.048;24.638;2022-07-25T11:05:42;5.95;;;4.60;;
10463;SDS011;5279;42.048;24.638;2022-07-25T11:08:10;6.13;;;4.93;;
10463;SDS011;5279;42.048;24.638;2022-07-25T11:10:37;5.78;;;5.20;;
10463;SDS011;5279;42.048;24.638;2022-07-25T11:13:04;5.20;;;4.80;;
10463;SDS011;5279;42.048;24.638;2022-07-25T11:15:36;5.65;;;5.15;;
10463;SDS011;5279;42.048;24.638;2022-07-25T11:18:03;5.60;;;5.20;;
10463;SDS011;5279;42.048;24.638;2022-07-25T11:20:30;5.85;;;5.07;;
10463;SDS011;5279;42.048;24.638;2022-07-25T11:22:57;5.57;;;5.10;;
10463;SDS011;5279;42.048;24.638;2022-07-25T11:25:24;5.72;;;5.18;;
10463;SDS011;5279;42.048;24.638;2022-07-25T11:27:54;5.25;;;4.85;;
10463;SDS011;5279;42.048;24.638;2022-07-25T11:30:24;5.55;;;5.15;;
10463;SDS011;5279;42.048;24.638;2022-07-25T11:32:53;4.93;;;4.53;;
10463;SDS011;5279;42.048;24.638;2022-07-25T11:35:22;5.10;;;4.70;;
10463;SDS011;5279;42.048;24.638;2022-07-25T11:37:51;5.35;;;4.90;;
10463;SDS011;5279;42.048;24.638;2022-07-25T11:40:19;5.57;;;5.07;;
10463;SDS011;5279;42.048;24.638;2022-07-25T11:42:47;6.63;;;4.43;;
10463;SDS011;5279;42.048;24.638;2022-07-25T11:45:17;5.20;;;4.80;;
10463;SDS011;5279;42.048;24.638;2022-07-25T11:47:47;5.53;;;5.13;;
10463;SDS011;5279;42.048;24.638;2022-07-25T11:50:14;5.40;;;5.00;;
10463;SDS011;5279;42.048;24.638;2022-07-25T11:52:42;5.68;;;5.28;;
10463;SDS011;5279;42.048;24.638;2022-07-25T11:55:11;5.40;;;4.90;;
10463;SDS011;5279;42.048;24.638;2022-07-25T11:57:42;5.45;;;5.05;;
10463;SDS011;5279;42.048;24.638;2022-07-25T12:00:13;5.47;;;5.07;;
10463;SDS011;5279;42.048;24.638;2022-07-25T12:02:42;6.18;;;5.63;;
10463;SDS011;5279;42.048;24.638;2022-07-25T12:05:11;6.13;;;5.63;;
10463;SDS011;5279;42.048;24.638;2022-07-25T12:07:43;5.75;;;5.20;;
10463;SDS011;5279;42.048;24.638;2022-07-25T12:10:12;6.05;;;5.40;;
10463;SDS011;5279;42.048;24.638;2022-07-25T12:12:47;7.63;;;5.32;;
10463;SDS011;5279;42.048;24.638;2022-07-25T12:15:15;6.75;;;5.90;;
10463;SDS011;5279;42.048;24.638;2022-07-25T12:17:44;6.15;;;5.38;;
10463;SDS011;5279;42.048;24.638;2022-07-25T12:20:16;6.60;;;4.95;;
10463;SDS011;5279;42.048;24.638;2022-07-25T12:22:44;6.03;;;5.53;;
10463;SDS011;5279;42.048;24.638;2022-07-25T12:25:12;7.35;;;5.40;;
10463;SDS011;5279;42.048;24.638;2022-07-25T12:27:39;6.18;;;5.30;;
10463;SDS011;5279;42.048;24.638;2022-07-25T12:30:07;5.57;;;5.18;;
10463;SDS011;5279;42.048;24.638;2022-07-25T12:32:35;5.72;;;5.18;;
10463;SDS011;5279;42.048;24.638;2022-07-25T12:35:03;5.90;;;5.35;;
10463;SDS011;5279;42.048;24.638;2022-07-25T12:37:32;6.53;;;5.80;;
10463;SDS011;5279;42.048;24.638;2022-07-25T12:39:59;7.68;;;5.43;;
10463;SDS011;5279;42.048;24.638;2022-07-25T12:42:26;6.50;;;5.22;;
10463;SDS011;5279;42.048;24.638;2022-07-25T12:44:53;5.53;;;5.03;;
10463;SDS011;5279;42.048;24.638;2022-07-25T12:47:20;6.07;;;5.45;;
10463;SDS011;5279;42.048;24.638;2022-07-25T12:49:47;7.72;;;5.13;;
10463;SDS011;5279;42.048;24.638;2022-07-25T12:52:14;5.90;;;5.40;;
10463;SDS011;5279;42.048;24.638;2022-07-25T12:54:43;5.80;;;5.30;;
10463;SDS011;5279;42.048;24.638;2022-07-25T12:57:10;5.78;;;5.32;;
10463;SDS011;5279;42.048;24.638;2022-07-25T12:59:38;6.20;;;5.70;;
10463;SDS011;5279;42.048;24.638;2022-07-25T13:02:06;5.70;;;5.30;;
10463;SDS011;5279;42.048;24.638;2022-07-25T13:04:33;6.07;;;5.47;;
10463;SDS011;5279;42.048;24.638;2022-07-25T13:07:01;6.65;;;5.38;;
10463;SDS011;5279;42.048;24.638;2022-07-25T13:09:27;5.70;;;5.28;;
10463;SDS011;5279;42.048;24.638;2022-07-25T13:11:56;6.00;;;5.60;;
10463;SDS011;5279;42.048;24.638;2022-07-25T13:14:23;6.60;;;5.43;;
10463;SDS011;5279;42.048;24.638;2022-07-25T13:16:50;7.43;;;5.38;;
10463;SDS011;5279;42.048;24.638;2022-07-25T13:19:17;5.70;;;5.20;;
10463;SDS011;5279;42.048;24.638;2022-07-25T13:21:44;7.53;;;5.43;;
10463;SDS011;5279;42.048;24.638;2022-07-25T13:24:11;6.10;;;5.50;;
10463;SDS011;5279;42.048;24.638;2022-07-25T13:26:38;6.47;;;5.90;;
10463;SDS011;5279;42.048;24.638;2022-07-25T13:29:06;5.53;;;5.13;;
10463;SDS011;5279;42.048;24.638;2022-07-25T13:31:35;5.90;;;5.40;;
10463;SDS011;5279;42.048;24.638;2022-07-25T13:34:03;5.63;;;5.13;;
10463;SDS011;5279;42.048;24.638;2022-07-25T13:36:31;6.28;;;5.57;;
10463;SDS011;5279;42.048;24.638;2022-07-25T13:38:58;6.25;;;5.75;;
10463;SDS011;5279;42.048;24.638;2022-07-25T13:41:25;6.53;;;5.93;;
10463;SDS011;5279;42.048;24.638;2022-07-25T13:43:52;6.20;;;5.57;;
10463;SDS011;5279;42.048;24.638;2022-07-25T13:46:21;5.72;;;5.22;;
10463;SDS011;5279;42.048;24.638;2022-07-25T13:48:48;6.22;;;5.68;;
10463;SDS011;5279;42.048;24.638;2022-07-25T13:51:15;6.13;;;5.53;;
10463;SDS011;5279;42.048;24.638;2022-07-25T13:53:42;6.43;;;5.80;;
10463;SDS011;5279;42.048;24.638;2022-07-25T13:56:10;6.18;;;5.78;;
10463;SDS011;5279;42.048;24.638;2022-07-25T13:58:37;7.97;;;7.18;;
10463;SDS011;5279;42.048;24.638;2022-07-25T14:01:10;6.97;;;6.47;;
10463;SDS011;5279;42.048;24.638;2022-07-25T14:03:38;7.90;;;7.10;;
10463;SDS011;5279;42.048;24.638;2022-07-25T14:06:07;8.18;;;6.90;;
10463;SDS011;5279;42.048;24.638;2022-07-25T14:08:35;7.30;;;6.78;;
10463;SDS011;5279;42.048;24.638;2022-07-25T14:11:04;7.63;;;6.88;;
10463;SDS011;5279;42.048;24.638;2022-07-25T14:13:32;7.43;;;6.72;;
10463;SDS011;5279;42.048;24.638;2022-07-25T14:15:59;8.32;;;7.57;;
10463;SDS011;5279;42.048;24.638;2022-07-25T14:18:26;7.93;;;7.18;;
10463;SDS011;5279;42.048;24.638;2022-07-25T14:20:55;8.52;;;7.70;;
10463;SDS011;5279;42.048;24.638;2022-07-25T14:23:22;7.55;;;6.95;;
10463;SDS011;5279;42.048;24.638;2022-07-25T14:25:49;7.30;;;6.70;;
10463;SDS011;5279;42.048;24.638;2022-07-25T14:28:16;8.80;;;8.00;;
10463;SDS011;5279;42.048;24.638;2022-07-25T14:30:43;8.50;;;7.80;;
10463;SDS011;5279;42.048;24.638;2022-07-25T14:33:10;10.05;;;7.80;;
10463;SDS011;5279;42.048;24.638;2022-07-25T14:35:36;8.00;;;7.30;;
10463;SDS011;5279;42.048;24.638;2022-07-25T14:38:05;8.48;;;7.55;;
10463;SDS011;5279;42.048;24.638;2022-07-25T14:40:32;8.98;;;7.65;;
10463;SDS011;5279;42.048;24.638;2022-07-25T14:42:59;8.52;;;7.63;;
10463;SDS011;5279;42.048;24.638;2022-07-25T14:45:26;7.82;;;7.22;;
10463;SDS011;5279;42.048;24.638;2022-07-25T14:47:52;8.30;;;7.60;;
10463;SDS011;5279;42.048;24.638;2022-07-25T14:50:19;8.73;;;7.97;;
10463;SDS011;5279;42.048;24.638;2022-07-25T14:52:47;8.00;;;7.40;;
10463;SDS011;5279;42.048;24.638;2022-07-25T14:58:10;7.43;;;6.85;;
10463;SDS011;5279;42.048;24.638;2022-07-25T15:00:39;8.27;;;7.43;;